KPKB

Mid-Ohio Valley Regional Airport

Parkersburg, West Virginia, USA
METAR KPKB 110153Z 00000KT 6SM BR CLR M06/M08 A3025 RMK AO2 SLP256 I1000 T10611083 $
Observed Flight Rules
Dec-11 @ 01:53 UTC (33 minutes ago) Visual Flight Rules
Visibility Clouds Conditions
6 miles
  • Clear skies
  • Mist
Temperatures Readings
Current -6°C / 21°F
Dewpoint -8°C / 18°F
Humidity 86%
Altimeter 30.25" Hg
Pressure 1025.6 hPa
Elevation 262
METAR KPKB 110153Z 00000KT 6SM BR CLR M06/M08 A3025 RMK AO2 SLP256 I1000 T10611083 $
Observed Flight Rules
Dec-11 @ 01:53 UTC
(33 minutes ago)
VFR
Clouds
  • Clear skies
Conditions
  • Mist
Temperature Dewpoint
-6°C / 21°F -8°C / 18°F
Humidity Altimeter Pressure
86% 30.25" Hg 1025.6 hPa